sensor_id;sensor_type;location;lat;lon;timestamp;temperature;humidity
39919;DHT22;25589;51.552;13.424;2023-02-12T00:01:30;7.80;99.90
39919;DHT22;25589;51.552;13.424;2023-02-12T00:03:56;7.40;99.90
39919;DHT22;25589;51.552;13.424;2023-02-12T00:06:22;7.90;99.90
39919;DHT22;25589;51.552;13.424;2023-02-12T00:08:49;7.90;99.90
39919;DHT22;25589;51.552;13.424;2023-02-12T00:11:17;8.00;99.90
39919;DHT22;25589;51.552;13.424;2023-02-12T00:13:43;8.00;99.90
39919;DHT22;25589;51.552;13.424;2023-02-12T00:16:12;7.90;99.90
39919;DHT22;25589;51.552;13.424;2023-02-12T00:18:37;8.10;99.90
39919;DHT22;25589;51.552;13.424;2023-02-12T00:21:04;8.00;99.90
39919;DHT22;25589;51.552;13.424;2023-02-12T00:23:30;8.10;99.90
39919;DHT22;25589;51.552;13.424;2023-02-12T00:25:55;8.10;99.90
39919;DHT22;25589;51.552;13.424;2023-02-12T00:28:21;7.80;99.90
39919;DHT22;25589;51.552;13.424;2023-02-12T00:30:47;8.00;99.90
39919;DHT22;25589;51.552;13.424;2023-02-12T00:33:12;8.00;99.90
39919;DHT22;25589;51.552;13.424;2023-02-12T00:35:38;8.00;99.90
39919;DHT22;25589;51.552;13.424;2023-02-12T00:38:03;8.40;99.90
39919;DHT22;25589;51.552;13.424;2023-02-12T00:40:29;8.00;99.90
39919;DHT22;25589;51.552;13.424;2023-02-12T00:42:54;8.00;99.90
39919;DHT22;25589;51.552;13.424;2023-02-12T00:45:20;8.10;99.90
39919;DHT22;25589;51.552;13.424;2023-02-12T00:47:45;8.10;99.90
39919;DHT22;25589;51.552;13.424;2023-02-12T00:50:14;8.20;99.90
39919;DHT22;25589;51.552;13.424;2023-02-12T00:52:39;8.20;99.90
39919;DHT22;25589;51.552;13.424;2023-02-12T00:55:05;8.30;99.90
39919;DHT22;25589;51.552;13.424;2023-02-12T00:57:31;8.30;99.90
39919;DHT22;25589;51.552;13.424;2023-02-12T00:59:58;9.20;99.90
39919;DHT22;25589;51.552;13.424;2023-02-12T01:02:23;8.30;99.90
39919;DHT22;25589;51.552;13.424;2023-02-12T01:04:49;8.30;99.90
39919;DHT22;25589;51.552;13.424;2023-02-12T01:07:14;8.40;99.90
39919;DHT22;25589;51.552;13.424;2023-02-12T01:09:40;8.30;99.90
39919;DHT22;25589;51.552;13.424;2023-02-12T01:12:06;8.10;99.90
39919;DHT22;25589;51.552;13.424;2023-02-12T01:14:31;8.70;99.90
39919;DHT22;25589;51.552;13.424;2023-02-12T01:16:57;8.20;99.90
39919;DHT22;25589;51.552;13.424;2023-02-12T01:19:22;8.20;99.90
39919;DHT22;25589;51.552;13.424;2023-02-12T01:21:48;8.00;99.90
39919;DHT22;25589;51.552;13.424;2023-02-12T01:24:14;8.00;99.90
39919;DHT22;25589;51.552;13.424;2023-02-12T01:26:40;8.30;99.90
39919;DHT22;25589;51.552;13.424;2023-02-12T01:29:06;8.10;99.90
39919;DHT22;25589;51.552;13.424;2023-02-12T01:31:35;8.10;99.90
39919;DHT22;25589;51.552;13.424;2023-02-12T01:34:02;8.20;99.90
39919;DHT22;25589;51.552;13.424;2023-02-12T01:36:29;7.40;99.90
39919;DHT22;25589;51.552;13.424;2023-02-12T01:38:55;8.10;99.90
39919;DHT22;25589;51.552;13.424;2023-02-12T01:41:24;8.30;99.90
39919;DHT22;25589;51.552;13.424;2023-02-12T01:46:32;8.20;99.90
39919;DHT22;25589;51.552;13.424;2023-02-12T01:48:58;8.30;99.90
39919;DHT22;25589;51.552;13.424;2023-02-12T01:51:26;8.20;99.90
39919;DHT22;25589;51.552;13.424;2023-02-12T01:53:54;8.30;99.90
39919;DHT22;25589;51.552;13.424;2023-02-12T01:56:23;8.10;99.90
39919;DHT22;25589;51.552;13.424;2023-02-12T01:58:50;8.20;99.90
39919;DHT22;25589;51.552;13.424;2023-02-12T02:01:23;8.30;99.90
39919;DHT22;25589;51.552;13.424;2023-02-12T02:03:54;8.40;99.90
39919;DHT22;25589;51.552;13.424;2023-02-12T02:06:30;7.80;99.90
39919;DHT22;25589;51.552;13.424;2023-02-12T02:08:59;8.30;99.90
39919;DHT22;25589;51.552;13.424;2023-02-12T02:11:25;8.20;99.90
39919;DHT22;25589;51.552;13.424;2023-02-12T02:14:09;8.90;99.90
39919;DHT22;25589;51.552;13.424;2023-02-12T02:17:06;7.80;99.90
39919;DHT22;25589;51.552;13.424;2023-02-12T02:19:59;8.00;99.90
39919;DHT22;25589;51.552;13.424;2023-02-12T02:22:55;8.30;99.90
39919;DHT22;25589;51.552;13.424;2023-02-12T02:31:03;8.50;99.90
39919;DHT22;25589;51.552;13.424;2023-02-12T02:39:02;8.70;99.90
39919;DHT22;25589;51.552;13.424;2023-02-12T02:44:07;8.40;99.90
39919;DHT22;25589;51.552;13.424;2023-02-12T02:49:12;8.40;99.90
39919;DHT22;25589;51.552;13.424;2023-02-12T02:51:45;8.30;99.90
39919;DHT22;25589;51.552;13.424;2023-02-12T02:54:33;8.30;99.90
39919;DHT22;25589;51.552;13.424;2023-02-12T02:57:07;8.60;99.90
39919;DHT22;25589;51.552;13.424;2023-02-12T02:59:39;8.20;99.90
39919;DHT22;25589;51.552;13.424;2023-02-12T03:02:25;8.20;99.90
39919;DHT22;25589;51.552;13.424;2023-02-12T03:04:56;9.20;99.90
39919;DHT22;25589;51.552;13.424;2023-02-12T03:07:33;7.80;99.90
39919;DHT22;25589;51.552;13.424;2023-02-12T03:10:06;8.40;99.90
39919;DHT22;25589;51.552;13.424;2023-02-12T03:12:40;7.80;99.90
39919;DHT22;25589;51.552;13.424;2023-02-12T03:15:24;8.20;99.90
39919;DHT22;25589;51.552;13.424;2023-02-12T03:17:50;8.10;99.90
39919;DHT22;25589;51.552;13.424;2023-02-12T03:20:23;8.40;99.90
39919;DHT22;25589;51.552;13.424;2023-02-12T03:22:57;8.20;99.90
39919;DHT22;25589;51.552;13.424;2023-02-12T03:25:34;8.20;99.90
39919;DHT22;25589;51.552;13.424;2023-02-12T03:28:19;8.20;99.90
39919;DHT22;25589;51.552;13.424;2023-02-12T03:34:04;8.10;99.90
39919;DHT22;25589;51.552;13.424;2023-02-12T03:36:51;7.80;99.90
39919;DHT22;25589;51.552;13.424;2023-02-12T03:39:27;8.10;99.90
39919;DHT22;25589;51.552;13.424;2023-02-12T03:42:04;8.10;99.90
39919;DHT22;25589;51.552;13.424;2023-02-12T03:47:36;8.20;99.90
39919;DHT22;25589;51.552;13.424;2023-02-12T03:52:33;8.20;99.90
39919;DHT22;25589;51.552;13.424;2023-02-12T03:54:59;8.60;99.90
39919;DHT22;25589;51.552;13.424;2023-02-12T03:57:28;8.20;99.90
39919;DHT22;25589;51.552;13.424;2023-02-12T03:59:57;8.30;99.90
39919;DHT22;25589;51.552;13.424;2023-02-12T04:02:23;8.30;99.90
39919;DHT22;25589;51.552;13.424;2023-02-12T04:04:49;8.30;99.90
39919;DHT22;25589;51.552;13.424;2023-02-12T04:07:15;9.50;99.90
39919;DHT22;25589;51.552;13.424;2023-02-12T04:09:41;8.80;99.90
39919;DHT22;25589;51.552;13.424;2023-02-12T04:12:25;8.30;99.90
39919;DHT22;25589;51.552;13.424;2023-02-12T04:15:10;8.40;99.90
39919;DHT22;25589;51.552;13.424;2023-02-12T04:23:15;8.60;99.90
39919;DHT22;25589;51.552;13.424;2023-02-12T04:25:52;8.80;99.90
39919;DHT22;25589;51.552;13.424;2023-02-12T04:34:14;8.70;99.90
39919;DHT22;25589;51.552;13.424;2023-02-12T04:36:59;8.50;99.90
39919;DHT22;25589;51.552;13.424;2023-02-12T04:41:58;8.50;99.90
39919;DHT22;25589;51.552;13.424;2023-02-12T04:44:27;8.50;99.90
39919;DHT22;25589;51.552;13.424;2023-02-12T04:46:52;8.50;99.90
39919;DHT22;25589;51.552;13.424;2023-02-12T04:49:20;8.50;99.90
39919;DHT22;25589;51.552;13.424;2023-02-12T04:51:46;8.10;99.90
39919;DHT22;25589;51.552;13.424;2023-02-12T04:54:14;8.60;99.90
39919;DHT22;25589;51.552;13.424;2023-02-12T04:56:39;8.90;99.90
39919;DHT22;25589;51.552;13.424;2023-02-12T04:59:05;8.60;99.90
39919;DHT22;25589;51.552;13.424;2023-02-12T05:01:33;9.10;99.90
39919;DHT22;25589;51.552;13.424;2023-02-12T05:03:59;8.60;99.90
39919;DHT22;25589;51.552;13.424;2023-02-12T05:06:25;8.60;99.90
39919;DHT22;25589;51.552;13.424;2023-02-12T05:08:54;7.90;99.90
39919;DHT22;25589;51.552;13.424;2023-02-12T05:11:19;9.20;99.90
39919;DHT22;25589;51.552;13.424;2023-02-12T05:13:49;8.70;99.90
39919;DHT22;25589;51.552;13.424;2023-02-12T05:16:15;8.30;99.90
39919;DHT22;25589;51.552;13.424;2023-02-12T05:18:41;8.50;99.90
39919;DHT22;25589;51.552;13.424;2023-02-12T05:21:06;8.10;99.90
39919;DHT22;25589;51.552;13.424;2023-02-12T05:23:35;8.40;99.90
39919;DHT22;25589;51.552;13.424;2023-02-12T05:26:03;8.50;99.90
39919;DHT22;25589;51.552;13.424;2023-02-12T05:28:29;8.90;99.90
39919;DHT22;25589;51.552;13.424;2023-02-12T05:30:59;8.50;99.90
39919;DHT22;25589;51.552;13.424;2023-02-12T05:33:26;8.70;99.90
39919;DHT22;25589;51.552;13.424;2023-02-12T05:35:51;8.60;99.90
39919;DHT22;25589;51.552;13.424;2023-02-12T05:38:17;8.50;99.90
39919;DHT22;25589;51.552;13.424;2023-02-12T05:40:43;8.80;99.90
39919;DHT22;25589;51.552;13.424;2023-02-12T05:43:08;8.90;99.90
39919;DHT22;25589;51.552;13.424;2023-02-12T05:45:34;8.60;99.90
39919;DHT22;25589;51.552;13.424;2023-02-12T05:47:59;8.60;99.90
39919;DHT22;25589;51.552;13.424;2023-02-12T05:50:25;8.40;99.90
39919;DHT22;25589;51.552;13.424;2023-02-12T05:52:59;8.60;99.90
39919;DHT22;25589;51.552;13.424;2023-02-12T05:55:25;9.30;99.90
39919;DHT22;25589;51.552;13.424;2023-02-12T05:57:51;8.60;99.90
39919;DHT22;25589;51.552;13.424;2023-02-12T06:00:16;9.10;99.90
39919;DHT22;25589;51.552;13.424;2023-02-12T06:02:42;8.60;99.90
39919;DHT22;25589;51.552;13.424;2023-02-12T06:05:07;8.80;99.90
39919;DHT22;25589;51.552;13.424;2023-02-12T06:07:33;8.60;99.90
39919;DHT22;25589;51.552;13.424;2023-02-12T06:09:59;8.50;99.90
39919;DHT22;25589;51.552;13.424;2023-02-12T06:12:24;8.50;99.90
39919;DHT22;25589;51.552;13.424;2023-02-12T06:14:50;8.80;99.90
39919;DHT22;25589;51.552;13.424;2023-02-12T06:17:15;8.00;99.90
39919;DHT22;25589;51.552;13.424;2023-02-12T06:19:41;8.90;99.90
39919;DHT22;25589;51.552;13.424;2023-02-12T06:22:06;8.50;99.90
39919;DHT22;25589;51.552;13.424;2023-02-12T06:24:32;8.70;99.90
39919;DHT22;25589;51.552;13.424;2023-02-12T06:26:57;8.30;99.90
39919;DHT22;25589;51.552;13.424;2023-02-12T06:29:23;8.50;99.90
39919;DHT22;25589;51.552;13.424;2023-02-12T06:31:49;8.60;99.90
39919;DHT22;25589;51.552;13.424;2023-02-12T06:34:14;8.60;99.90
39919;DHT22;25589;51.552;13.424;2023-02-12T06:36:45;8.60;99.90
39919;DHT22;25589;51.552;13.424;2023-02-12T06:41:37;8.60;99.90
39919;DHT22;25589;51.552;13.424;2023-02-12T06:44:04;8.60;99.90
39919;DHT22;25589;51.552;13.424;2023-02-12T06:46:30;8.70;99.90
39919;DHT22;25589;51.552;13.424;2023-02-12T06:48:57;8.70;99.90
39919;DHT22;25589;51.552;13.424;2023-02-12T06:51:24;8.70;99.90
39919;DHT22;25589;51.552;13.424;2023-02-12T06:53:51;8.70;99.90
39919;DHT22;25589;51.552;13.424;2023-02-12T06:56:17;8.60;99.90
39919;DHT22;25589;51.552;13.424;2023-02-12T06:58:45;8.70;99.90
39919;DHT22;25589;51.552;13.424;2023-02-12T07:01:14;8.60;99.90
39919;DHT22;25589;51.552;13.424;2023-02-12T07:03:43;8.70;99.90
39919;DHT22;25589;51.552;13.424;2023-02-12T07:06:09;8.00;99.90
39919;DHT22;25589;51.552;13.424;2023-02-12T07:08:35;8.80;99.90
39919;DHT22;25589;51.552;13.424;2023-02-12T07:11:01;8.60;99.90
39919;DHT22;25589;51.552;13.424;2023-02-12T07:13:27;8.60;99.90
39919;DHT22;25589;51.552;13.424;2023-02-12T07:15:52;8.60;99.90
39919;DHT22;25589;51.552;13.424;2023-02-12T07:18:18;8.60;99.90
39919;DHT22;25589;51.552;13.424;2023-02-12T07:20:43;8.60;99.90
39919;DHT22;25589;51.552;13.424;2023-02-12T07:23:12;8.70;99.90
39919;DHT22;25589;51.552;13.424;2023-02-12T07:25:38;8.70;99.90
39919;DHT22;25589;51.552;13.424;2023-02-12T07:28:04;8.70;99.90
39919;DHT22;25589;51.552;13.424;2023-02-12T07:30:29;8.50;99.90
39919;DHT22;25589;51.552;13.424;2023-02-12T07:32:55;9.20;99.90
39919;DHT22;25589;51.552;13.424;2023-02-12T07:35:20;8.80;99.90
39919;DHT22;25589;51.552;13.424;2023-02-12T07:37:46;8.80;99.90
39919;DHT22;25589;51.552;13.424;2023-02-12T07:40:12;8.80;99.90
39919;DHT22;25589;51.552;13.424;2023-02-12T07:42:37;8.70;99.90
39919;DHT22;25589;51.552;13.424;2023-02-12T07:45:05;8.80;99.90
39919;DHT22;25589;51.552;13.424;2023-02-12T07:47:32;8.70;99.90
39919;DHT22;25589;51.552;13.424;2023-02-12T07:49:57;9.10;99.90
39919;DHT22;25589;51.552;13.424;2023-02-12T07:52:23;8.80;99.90
39919;DHT22;25589;51.552;13.424;2023-02-12T07:54:48;8.90;99.90
39919;DHT22;25589;51.552;13.424;2023-02-12T07:57:14;8.70;99.90
39919;DHT22;25589;51.552;13.424;2023-02-12T07:59:39;8.50;99.90
39919;DHT22;25589;51.552;13.424;2023-02-12T08:02:05;9.00;99.90
39919;DHT22;25589;51.552;13.424;2023-02-12T08:04:31;9.50;99.90
39919;DHT22;25589;51.552;13.424;2023-02-12T08:06:56;9.10;99.90
39919;DHT22;25589;51.552;13.424;2023-02-12T08:09:26;8.80;99.90
39919;DHT22;25589;51.552;13.424;2023-02-12T08:11:54;8.90;99.90
39919;DHT22;25589;51.552;13.424;2023-02-12T08:14:21;8.90;99.90
39919;DHT22;25589;51.552;13.424;2023-02-12T08:16:47;8.80;99.90
39919;DHT22;25589;51.552;13.424;2023-02-12T08:19:14;8.90;99.90
39919;DHT22;25589;51.552;13.424;2023-02-12T08:21:40;9.40;99.90
39919;DHT22;25589;51.552;13.424;2023-02-12T08:24:06;8.80;99.90
39919;DHT22;25589;51.552;13.424;2023-02-12T08:26:34;8.90;99.90
39919;DHT22;25589;51.552;13.424;2023-02-12T08:29:05;8.90;99.90
39919;DHT22;25589;51.552;13.424;2023-02-12T08:31:36;10.00;99.90
39919;DHT22;25589;51.552;13.424;2023-02-12T08:34:02;8.90;99.90
39919;DHT22;25589;51.552;13.424;2023-02-12T08:36:37;9.00;99.90
39919;DHT22;25589;51.552;13.424;2023-02-12T08:39:03;8.90;99.90
39919;DHT22;25589;51.552;13.424;2023-02-12T08:41:29;9.00;99.90
39919;DHT22;25589;51.552;13.424;2023-02-12T08:43:57;9.30;99.90
39919;DHT22;25589;51.552;13.424;2023-02-12T08:46:28;9.00;99.90
39919;DHT22;25589;51.552;13.424;2023-02-12T08:48:57;9.00;99.90
39919;DHT22;25589;51.552;13.424;2023-02-12T08:51:26;9.60;99.90
39919;DHT22;25589;51.552;13.424;2023-02-12T08:53:56;9.10;99.90
39919;DHT22;25589;51.552;13.424;2023-02-12T08:56:23;8.90;99.90
39919;DHT22;25589;51.552;13.424;2023-02-12T08:58:49;9.20;99.90
39919;DHT22;25589;51.552;13.424;2023-02-12T09:01:18;9.10;99.90
39919;DHT22;25589;51.552;13.424;2023-02-12T09:03:45;9.20;99.90
39919;DHT22;25589;51.552;13.424;2023-02-12T09:06:12;9.20;99.90
39919;DHT22;25589;51.552;13.424;2023-02-12T09:08:38;9.60;99.90
39919;DHT22;25589;51.552;13.424;2023-02-12T09:11:15;9.30;99.90
39919;DHT22;25589;51.552;13.424;2023-02-12T09:13:42;9.10;99.90
39919;DHT22;25589;51.552;13.424;2023-02-12T09:18:35;9.30;99.90
39919;DHT22;25589;51.552;13.424;2023-02-12T09:21:12;9.40;99.90
39919;DHT22;25589;51.552;13.424;2023-02-12T09:23:39;9.40;99.90
39919;DHT22;25589;51.552;13.424;2023-02-12T09:26:07;9.40;99.90
39919;DHT22;25589;51.552;13.424;2023-02-12T09:28:33;9.30;99.90
39919;DHT22;25589;51.552;13.424;2023-02-12T09:31:07;9.40;99.90
39919;DHT22;25589;51.552;13.424;2023-02-12T09:33:33;9.50;99.90
39919;DHT22;25589;51.552;13.424;2023-02-12T09:36:03;9.50;99.90
39919;DHT22;25589;51.552;13.424;2023-02-12T09:38:29;9.60;99.90
39919;DHT22;25589;51.552;13.424;2023-02-12T09:50:20;9.60;99.90
39919;DHT22;25589;51.552;13.424;2023-02-12T09:52:50;9.90;99.90
39919;DHT22;25589;51.552;13.424;2023-02-12T09:55:17;9.70;99.90
39919;DHT22;25589;51.552;13.424;2023-02-12T09:57:43;9.80;99.90
39919;DHT22;25589;51.552;13.424;2023-02-12T10:00:14;9.70;99.90
39919;DHT22;25589;51.552;13.424;2023-02-12T10:02:40;10.00;99.90
39919;DHT22;25589;51.552;13.424;2023-02-12T10:06:03;10.00;99.90
39919;DHT22;25589;51.552;13.424;2023-02-12T10:08:39;9.90;99.90
39919;DHT22;25589;51.552;13.424;2023-02-12T10:13:59;9.60;99.90
39919;DHT22;25589;51.552;13.424;2023-02-12T10:19:34;9.90;99.90
39919;DHT22;25589;51.552;13.424;2023-02-12T10:22:31;10.20;99.90
39919;DHT22;25589;51.552;13.424;2023-02-12T10:25:19;10.70;99.90
39919;DHT22;25589;51.552;13.424;2023-02-12T10:27:50;10.30;99.90
39919;DHT22;25589;51.552;13.424;2023-02-12T10:30:35;10.70;99.90
39919;DHT22;25589;51.552;13.424;2023-02-12T10:33:06;10.50;99.90
39919;DHT22;25589;51.552;13.424;2023-02-12T10:35:35;10.40;99.90
39919;DHT22;25589;51.552;13.424;2023-02-12T10:38:10;10.50;99.90
39919;DHT22;25589;51.552;13.424;2023-02-12T10:40:42;10.60;99.90
39919;DHT22;25589;51.552;13.424;2023-02-12T10:43:10;10.20;99.90
39919;DHT22;25589;51.552;13.424;2023-02-12T10:45:38;10.60;99.90
39919;DHT22;25589;51.552;13.424;2023-02-12T10:48:18;10.60;99.90
39919;DHT22;25589;51.552;13.424;2023-02-12T10:53:37;10.60;99.90
39919;DHT22;25589;51.552;13.424;2023-02-12T10:56:15;10.00;99.90
39919;DHT22;25589;51.552;13.424;2023-02-12T10:58:59;10.60;99.90
39919;DHT22;25589;51.552;13.424;2023-02-12T11:01:36;10.50;99.90
39919;DHT22;25589;51.552;13.424;2023-02-12T11:07:03;10.50;99.90
39919;DHT22;25589;51.552;13.424;2023-02-12T11:09:51;10.20;99.90
39919;DHT22;25589;51.552;13.424;2023-02-12T11:12:32;10.20;99.90
39919;DHT22;25589;51.552;13.424;2023-02-12T11:15:01;10.10;99.90
39919;DHT22;25589;51.552;13.424;2023-02-12T11:17:34;10.00;99.90
39919;DHT22;25589;51.552;13.424;2023-02-12T11:22:56;10.10;99.90
39919;DHT22;25589;51.552;13.424;2023-02-12T11:25:25;10.20;99.90
39919;DHT22;25589;51.552;13.424;2023-02-12T11:28:05;10.30;99.90
39919;DHT22;25589;51.552;13.424;2023-02-12T11:30:31;9.80;99.90
39919;DHT22;25589;51.552;13.424;2023-02-12T11:33:14;10.30;99.90
39919;DHT22;25589;51.552;13.424;2023-02-12T11:35:52;10.40;99.90
39919;DHT22;25589;51.552;13.424;2023-02-12T11:38:29;10.50;99.90
39919;DHT22;25589;51.552;13.424;2023-02-12T11:40:58;10.40;99.90
39919;DHT22;25589;51.552;13.424;2023-02-12T11:43:25;9.90;99.90
39919;DHT22;25589;51.552;13.424;2023-02-12T11:45:54;10.60;99.90
39919;DHT22;25589;51.552;13.424;2023-02-12T11:48:36;10.40;99.90
39919;DHT22;25589;51.552;13.424;2023-02-12T11:51:08;10.40;99.90
39919;DHT22;25589;51.552;13.424;2023-02-12T11:53:41;10.40;99.90
39919;DHT22;25589;51.552;13.424;2023-02-12T11:56:10;10.00;99.90
39919;DHT22;25589;51.552;13.424;2023-02-12T11:58:36;10.30;99.90
39919;DHT22;25589;51.552;13.424;2023-02-12T12:01:19;10.30;99.90
39919;DHT22;25589;51.552;13.424;2023-02-12T12:14:43;10.60;99.90
39919;DHT22;25589;51.552;13.424;2023-02-12T12:18:08;10.60;99.90
39919;DHT22;25589;51.552;13.424;2023-02-12T12:21:24;10.90;99.90
39919;DHT22;25589;51.552;13.424;2023-02-12T12:23:59;10.60;99.90
39919;DHT22;25589;51.552;13.424;2023-02-12T12:26:29;10.70;99.90
39919;DHT22;25589;51.552;13.424;2023-02-12T12:31:33;10.70;99.90
39919;DHT22;25589;51.552;13.424;2023-02-12T12:39:33;10.80;99.90
39919;DHT22;25589;51.552;13.424;2023-02-12T12:44:59;11.10;99.90
39919;DHT22;25589;51.552;13.424;2023-02-12T12:50:55;10.80;99.90
39919;DHT22;25589;51.552;13.424;2023-02-12T12:53:47;10.60;99.90
39919;DHT22;25589;51.552;13.424;2023-02-12T13:04:41;11.00;99.90
39919;DHT22;25589;51.552;13.424;2023-02-12T13:07:35;9.90;99.90
39919;DHT22;25589;51.552;13.424;2023-02-12T13:12:56;9.70;99.90
39919;DHT22;25589;51.552;13.424;2023-02-12T13:18:15;10.40;99.90
39919;DHT22;25589;51.552;13.424;2023-02-12T13:29:07;10.80;99.90
39919;DHT22;25589;51.552;13.424;2023-02-12T13:34:44;11.20;99.90
39919;DHT22;25589;51.552;13.424;2023-02-12T13:37:17;11.30;99.90
39919;DHT22;25589;51.552;13.424;2023-02-12T13:39:47;11.30;99.90
39919;DHT22;25589;51.552;13.424;2023-02-12T13:42:43;11.20;99.90
39919;DHT22;25589;51.552;13.424;2023-02-12T13:45:18;11.20;99.90
39919;DHT22;25589;51.552;13.424;2023-02-12T13:50:55;10.70;99.90
39919;DHT22;25589;51.552;13.424;2023-02-12T13:53:40;10.90;99.90
39919;DHT22;25589;51.552;13.424;2023-02-12T13:56:33;10.80;99.90
39919;DHT22;25589;51.552;13.424;2023-02-12T13:59:02;11.10;99.90
39919;DHT22;25589;51.552;13.424;2023-02-12T14:01:41;11.00;99.90
39919;DHT22;25589;51.552;13.424;2023-02-12T14:06:59;11.00;99.90
39919;DHT22;25589;51.552;13.424;2023-02-12T14:09:30;11.20;99.90
39919;DHT22;25589;51.552;13.424;2023-02-12T14:11:57;10.90;99.90
39919;DHT22;25589;51.552;13.424;2023-02-12T14:14:30;11.50;99.90
39919;DHT22;25589;51.552;13.424;2023-02-12T14:16:57;11.60;99.90
39919;DHT22;25589;51.552;13.424;2023-02-12T14:20:04;11.50;99.90
39919;DHT22;25589;51.552;13.424;2023-02-12T14:27:51;10.40;99.90
39919;DHT22;25589;51.552;13.424;2023-02-12T14:32:59;10.90;99.90
39919;DHT22;25589;51.552;13.424;2023-02-12T14:35:44;10.20;99.90
39919;DHT22;25589;51.552;13.424;2023-02-12T14:40:45;11.50;99.90
39919;DHT22;25589;51.552;13.424;2023-02-12T14:43:32;11.00;99.90
39919;DHT22;25589;51.552;13.424;2023-02-12T14:48:51;10.90;99.90
39919;DHT22;25589;51.552;13.424;2023-02-12T14:53:52;10.70;99.90
39919;DHT22;25589;51.552;13.424;2023-02-12T14:56:22;10.70;99.90
39919;DHT22;25589;51.552;13.424;2023-02-12T14:58:50;10.60;99.90
39919;DHT22;25589;51.552;13.424;2023-02-12T15:01:17;10.60;99.90
39919;DHT22;25589;51.552;13.424;2023-02-12T15:03:53;10.70;99.90
39919;DHT22;25589;51.552;13.424;2023-02-12T15:06:21;10.60;99.90
39919;DHT22;25589;51.552;13.424;2023-02-12T15:08:59;10.30;99.90
39919;DHT22;25589;51.552;13.424;2023-02-12T15:16:57;10.70;99.90
39919;DHT22;25589;51.552;13.424;2023-02-12T15:22:21;10.70;99.90
39919;DHT22;25589;51.552;13.424;2023-02-12T15:24:47;10.60;99.90
39919;DHT22;25589;51.552;13.424;2023-02-12T15:27:14;10.80;99.90
39919;DHT22;25589;51.552;13.424;2023-02-12T15:29:43;10.70;99.90
39919;DHT22;25589;51.552;13.424;2023-02-12T15:32:26;10.70;99.90
39919;DHT22;25589;51.552;13.424;2023-02-12T15:34:53;10.70;99.90
39919;DHT22;25589;51.552;13.424;2023-02-12T15:37:26;10.70;99.90
39919;DHT22;25589;51.552;13.424;2023-02-12T15:39:53;10.70;99.90
39919;DHT22;25589;51.552;13.424;2023-02-12T15:44:49;11.00;99.90
39919;DHT22;25589;51.552;13.424;2023-02-12T15:47:15;10.70;99.90
39919;DHT22;25589;51.552;13.424;2023-02-12T15:49:42;10.70;99.90
39919;DHT22;25589;51.552;13.424;2023-02-12T15:52:23;10.60;99.90
39919;DHT22;25589;51.552;13.424;2023-02-12T15:54:51;10.60;99.90
39919;DHT22;25589;51.552;13.424;2023-02-12T15:57:21;10.50;99.90
39919;DHT22;25589;51.552;13.424;2023-02-12T15:59:52;10.50;99.90
39919;DHT22;25589;51.552;13.424;2023-02-12T16:02:30;11.10;99.90
39919;DHT22;25589;51.552;13.424;2023-02-12T16:04:58;10.50;99.90
39919;DHT22;25589;51.552;13.424;2023-02-12T16:07:27;10.50;99.90
39919;DHT22;25589;51.552;13.424;2023-02-12T16:09:54;10.50;99.90
39919;DHT22;25589;51.552;13.424;2023-02-12T16:12:22;10.30;99.90
39919;DHT22;25589;51.552;13.424;2023-02-12T16:17:31;10.50;99.90
39919;DHT22;25589;51.552;13.424;2023-02-12T16:19:59;10.50;99.90
39919;DHT22;25589;51.552;13.424;2023-02-12T16:22:38;9.80;99.90
39919;DHT22;25589;51.552;13.424;2023-02-12T16:25:19;10.40;99.90
39919;DHT22;25589;51.552;13.424;2023-02-12T16:28:00;10.50;99.90
39919;DHT22;25589;51.552;13.424;2023-02-12T16:30:47;10.40;99.90
39919;DHT22;25589;51.552;13.424;2023-02-12T16:38:42;10.20;99.90
39919;DHT22;25589;51.552;13.424;2023-02-12T16:43:49;10.40;99.90
39919;DHT22;25589;51.552;13.424;2023-02-12T16:46:17;9.90;99.90
39919;DHT22;25589;51.552;13.424;2023-02-12T16:48:48;10.50;99.90
39919;DHT22;25589;51.552;13.424;2023-02-12T16:51:35;10.60;99.90
39919;DHT22;25589;51.552;13.424;2023-02-12T16:54:03;10.40;99.90
39919;DHT22;25589;51.552;13.424;2023-02-12T16:56:32;10.40;99.90
39919;DHT22;25589;51.552;13.424;2023-02-12T16:59:00;10.60;99.90
39919;DHT22;25589;51.552;13.424;2023-02-12T17:01:28;10.40;99.90
39919;DHT22;25589;51.552;13.424;2023-02-12T17:03:55;10.40;99.90
39919;DHT22;25589;51.552;13.424;2023-02-12T17:06:25;10.70;99.90
39919;DHT22;25589;51.552;13.424;2023-02-12T17:08:51;10.50;99.90
39919;DHT22;25589;51.552;13.424;2023-02-12T17:11:17;10.40;99.90
39919;DHT22;25589;51.552;13.424;2023-02-12T17:13:45;10.40;99.90
39919;DHT22;25589;51.552;13.424;2023-02-12T17:16:11;10.30;99.90
39919;DHT22;25589;51.552;13.424;2023-02-12T17:18:37;10.30;99.90
39919;DHT22;25589;51.552;13.424;2023-02-12T17:21:29;10.30;99.90
39919;DHT22;25589;51.552;13.424;2023-02-12T17:23:56;10.30;99.90
39919;DHT22;25589;51.552;13.424;2023-02-12T17:26:23;10.30;99.90
39919;DHT22;25589;51.552;13.424;2023-02-12T17:28:49;10.20;99.90
39919;DHT22;25589;51.552;13.424;2023-02-12T17:31:15;10.30;99.90
39919;DHT22;25589;51.552;13.424;2023-02-12T17:33:41;10.50;99.90
39919;DHT22;25589;51.552;13.424;2023-02-12T17:36:06;10.30;99.90
39919;DHT22;25589;51.552;13.424;2023-02-12T17:38:32;10.30;99.90
39919;DHT22;25589;51.552;13.424;2023-02-12T17:40:58;10.10;99.90
39919;DHT22;25589;51.552;13.424;2023-02-12T17:43:23;10.20;99.90
39919;DHT22;25589;51.552;13.424;2023-02-12T17:45:49;10.60;99.90
39919;DHT22;25589;51.552;13.424;2023-02-12T17:50:42;10.20;99.90
39919;DHT22;25589;51.552;13.424;2023-02-12T17:53:09;10.20;99.90
39919;DHT22;25589;51.552;13.424;2023-02-12T17:58:04;10.10;99.90
39919;DHT22;25589;51.552;13.424;2023-02-12T18:00:30;10.60;99.90
39919;DHT22;25589;51.552;13.424;2023-02-12T18:02:55;10.00;99.90
39919;DHT22;25589;51.552;13.424;2023-02-12T18:05:21;9.70;99.90
39919;DHT22;25589;51.552;13.424;2023-02-12T18:07:47;10.00;99.90
39919;DHT22;25589;51.552;13.424;2023-02-12T18:10:13;10.10;99.90
39919;DHT22;25589;51.552;13.424;2023-02-12T18:12:38;10.00;99.90
39919;DHT22;25589;51.552;13.424;2023-02-12T18:15:06;10.00;99.90
39919;DHT22;25589;51.552;13.424;2023-02-12T18:17:33;10.00;99.90
39919;DHT22;25589;51.552;13.424;2023-02-12T18:19:59;10.40;99.90
39919;DHT22;25589;51.552;13.424;2023-02-12T18:22:25;9.90;99.90
39919;DHT22;25589;51.552;13.424;2023-02-12T18:24:50;9.90;99.90
39919;DHT22;25589;51.552;13.424;2023-02-12T18:27:16;9.40;99.90
39919;DHT22;25589;51.552;13.424;2023-02-12T18:29:45;9.90;99.90
39919;DHT22;25589;51.552;13.424;2023-02-12T18:32:10;9.80;99.90
39919;DHT22;25589;51.552;13.424;2023-02-12T18:34:41;9.90;99.90